sensor_id;sensor_type;location;lat;lon;timestamp;temperature;humidity
2130;DHT22;1071;52.544;13.374;2024-02-14T00:00:40;8.60;99.90
2130;DHT22;1071;52.544;13.374;2024-02-14T00:03:09;8.60;99.90
2130;DHT22;1071;52.544;13.374;2024-02-14T00:05:36;8.60;99.90
2130;DHT22;1071;52.544;13.374;2024-02-14T00:08:03;8.60;99.90
2130;DHT22;1071;52.544;13.374;2024-02-14T00:10:31;8.60;99.90
2130;DHT22;1071;52.544;13.374;2024-02-14T00:12:58;8.60;99.90
2130;DHT22;1071;52.544;13.374;2024-02-14T00:15:29;8.60;99.90
2130;DHT22;1071;52.544;13.374;2024-02-14T00:17:56;8.60;99.90
2130;DHT22;1071;52.544;13.374;2024-02-14T00:20:27;8.60;99.90
2130;DHT22;1071;52.544;13.374;2024-02-14T00:22:54;8.60;99.90
2130;DHT22;1071;52.544;13.374;2024-02-14T00:25:21;8.60;99.90
2130;DHT22;1071;52.544;13.374;2024-02-14T00:27:50;8.60;99.90
2130;DHT22;1071;52.544;13.374;2024-02-14T00:30:17;8.60;99.90
2130;DHT22;1071;52.544;13.374;2024-02-14T00:32:55;8.60;99.90
2130;DHT22;1071;52.544;13.374;2024-02-14T00:35:24;8.60;99.90
2130;DHT22;1071;52.544;13.374;2024-02-14T00:37:51;8.60;99.90
2130;DHT22;1071;52.544;13.374;2024-02-14T00:40:18;8.50;99.90
2130;DHT22;1071;52.544;13.374;2024-02-14T00:42:49;8.50;99.90
2130;DHT22;1071;52.544;13.374;2024-02-14T00:45:16;8.60;99.90
2130;DHT22;1071;52.544;13.374;2024-02-14T00:47:43;8.60;99.90
2130;DHT22;1071;52.544;13.374;2024-02-14T00:50:13;8.50;99.90
2130;DHT22;1071;52.544;13.374;2024-02-14T00:52:40;8.50;99.90
2130;DHT22;1071;52.544;13.374;2024-02-14T00:55:08;8.50;99.90
2130;DHT22;1071;52.544;13.374;2024-02-14T00:57:36;8.50;99.90
2130;DHT22;1071;52.544;13.374;2024-02-14T01:00:07;8.50;99.90
2130;DHT22;1071;52.544;13.374;2024-02-14T01:02:34;8.50;99.90
2130;DHT22;1071;52.544;13.374;2024-02-14T01:05:01;8.50;99.90
2130;DHT22;1071;52.544;13.374;2024-02-14T01:07:31;8.50;99.90
2130;DHT22;1071;52.544;13.374;2024-02-14T01:09:58;8.50;99.90
2130;DHT22;1071;52.544;13.374;2024-02-14T01:12:25;8.50;99.90
2130;DHT22;1071;52.544;13.374;2024-02-14T01:14:53;8.50;99.90
2130;DHT22;1071;52.544;13.374;2024-02-14T01:17:22;8.50;99.90
2130;DHT22;1071;52.544;13.374;2024-02-14T01:19:52;8.50;99.90
2130;DHT22;1071;52.544;13.374;2024-02-14T01:22:19;8.40;99.90
2130;DHT22;1071;52.544;13.374;2024-02-14T01:24:48;8.40;99.90
2130;DHT22;1071;52.544;13.374;2024-02-14T01:27:15;8.40;99.90
2130;DHT22;1071;52.544;13.374;2024-02-14T01:29:42;8.40;99.90
2130;DHT22;1071;52.544;13.374;2024-02-14T01:32:10;8.40;99.90
2130;DHT22;1071;52.544;13.374;2024-02-14T01:34:37;8.40;99.90
2130;DHT22;1071;52.544;13.374;2024-02-14T01:37:04;8.40;99.90
2130;DHT22;1071;52.544;13.374;2024-02-14T01:39:31;8.40;99.90
2130;DHT22;1071;52.544;13.374;2024-02-14T01:42:00;8.40;99.90
2130;DHT22;1071;52.544;13.374;2024-02-14T01:44:33;8.40;99.90
2130;DHT22;1071;52.544;13.374;2024-02-14T01:47:01;8.30;99.90
2130;DHT22;1071;52.544;13.374;2024-02-14T01:49:29;8.40;99.90
2130;DHT22;1071;52.544;13.374;2024-02-14T01:51:59;8.40;99.90
2130;DHT22;1071;52.544;13.374;2024-02-14T01:54:28;8.40;99.90
2130;DHT22;1071;52.544;13.374;2024-02-14T01:56:56;8.40;99.90
2130;DHT22;1071;52.544;13.374;2024-02-14T01:59:26;8.40;99.90
2130;DHT22;1071;52.544;13.374;2024-02-14T02:01:53;8.40;99.90
2130;DHT22;1071;52.544;13.374;2024-02-14T02:04:21;8.30;99.90
2130;DHT22;1071;52.544;13.374;2024-02-14T02:06:48;8.30;99.90
2130;DHT22;1071;52.544;13.374;2024-02-14T02:09:15;8.30;99.90
2130;DHT22;1071;52.544;13.374;2024-02-14T02:11:45;8.30;99.90
2130;DHT22;1071;52.544;13.374;2024-02-14T02:14:13;8.30;99.90
2130;DHT22;1071;52.544;13.374;2024-02-14T02:16:43;8.30;99.90
2130;DHT22;1071;52.544;13.374;2024-02-14T02:19:11;8.40;99.90
2130;DHT22;1071;52.544;13.374;2024-02-14T02:21:39;8.40;99.90
2130;DHT22;1071;52.544;13.374;2024-02-14T02:24:07;8.40;99.90
2130;DHT22;1071;52.544;13.374;2024-02-14T02:26:34;8.40;99.90
2130;DHT22;1071;52.544;13.374;2024-02-14T02:29:01;8.40;99.90
2130;DHT22;1071;52.544;13.374;2024-02-14T02:31:32;8.40;99.90
2130;DHT22;1071;52.544;13.374;2024-02-14T02:33:59;8.50;99.90
2130;DHT22;1071;52.544;13.374;2024-02-14T02:36:26;8.50;99.90
2130;DHT22;1071;52.544;13.374;2024-02-14T02:38:55;8.50;99.90
2130;DHT22;1071;52.544;13.374;2024-02-14T02:41:24;8.40;99.90
2130;DHT22;1071;52.544;13.374;2024-02-14T02:43:59;8.40;99.90
2130;DHT22;1071;52.544;13.374;2024-02-14T02:46:27;8.40;99.90
2130;DHT22;1071;52.544;13.374;2024-02-14T02:48:55;8.40;99.90
2130;DHT22;1071;52.544;13.374;2024-02-14T02:51:22;8.40;99.90
2130;DHT22;1071;52.544;13.374;2024-02-14T02:53:49;8.40;99.90
2130;DHT22;1071;52.544;13.374;2024-02-14T02:56:17;8.40;99.90
2130;DHT22;1071;52.544;13.374;2024-02-14T02:58:45;8.40;99.90
2130;DHT22;1071;52.544;13.374;2024-02-14T03:01:14;8.40;99.90
2130;DHT22;1071;52.544;13.374;2024-02-14T03:03:41;8.40;99.90
2130;DHT22;1071;52.544;13.374;2024-02-14T03:06:08;8.40;99.90
2130;DHT22;1071;52.544;13.374;2024-02-14T03:08:35;8.30;99.90
2130;DHT22;1071;52.544;13.374;2024-02-14T03:11:04;8.30;99.90
2130;DHT22;1071;52.544;13.374;2024-02-14T03:13:31;8.30;99.90
2130;DHT22;1071;52.544;13.374;2024-02-14T03:16:02;8.20;99.90
2130;DHT22;1071;52.544;13.374;2024-02-14T03:18:29;8.20;99.90
2130;DHT22;1071;52.544;13.374;2024-02-14T03:20:57;8.20;99.90
2130;DHT22;1071;52.544;13.374;2024-02-14T03:23:24;8.20;99.90
2130;DHT22;1071;52.544;13.374;2024-02-14T03:25:53;8.20;99.90
2130;DHT22;1071;52.544;13.374;2024-02-14T03:28:20;8.20;99.90
2130;DHT22;1071;52.544;13.374;2024-02-14T03:30:47;8.20;99.90
2130;DHT22;1071;52.544;13.374;2024-02-14T03:33:16;8.20;99.90
2130;DHT22;1071;52.544;13.374;2024-02-14T03:35:43;8.10;99.90
2130;DHT22;1071;52.544;13.374;2024-02-14T03:38:10;8.10;99.90
2130;DHT22;1071;52.544;13.374;2024-02-14T03:40:40;8.10;99.90
2130;DHT22;1071;52.544;13.374;2024-02-14T03:43:07;8.10;99.90
2130;DHT22;1071;52.544;13.374;2024-02-14T03:45:36;8.00;99.90
2130;DHT22;1071;52.544;13.374;2024-02-14T03:48:04;8.00;99.90
2130;DHT22;1071;52.544;13.374;2024-02-14T03:50:33;8.00;99.90
2130;DHT22;1071;52.544;13.374;2024-02-14T03:53:00;8.00;99.90
2130;DHT22;1071;52.544;13.374;2024-02-14T03:55:28;8.00;99.90
2130;DHT22;1071;52.544;13.374;2024-02-14T03:57:56;7.90;99.90
2130;DHT22;1071;52.544;13.374;2024-02-14T04:00:26;7.90;99.90
2130;DHT22;1071;52.544;13.374;2024-02-14T04:02:54;7.90;99.90
2130;DHT22;1071;52.544;13.374;2024-02-14T04:05:27;7.90;99.90
2130;DHT22;1071;52.544;13.374;2024-02-14T04:07:58;7.90;99.90
2130;DHT22;1071;52.544;13.374;2024-02-14T04:10:25;7.90;99.90
2130;DHT22;1071;52.544;13.374;2024-02-14T04:12:52;7.90;99.90
2130;DHT22;1071;52.544;13.374;2024-02-14T04:15:21;7.90;99.90
2130;DHT22;1071;52.544;13.374;2024-02-14T04:17:48;7.90;99.90
2130;DHT22;1071;52.544;13.374;2024-02-14T04:20:15;7.90;99.90
2130;DHT22;1071;52.544;13.374;2024-02-14T04:22:43;7.90;99.90
2130;DHT22;1071;52.544;13.374;2024-02-14T04:25:13;7.90;99.90
2130;DHT22;1071;52.544;13.374;2024-02-14T04:27:40;7.90;99.90
2130;DHT22;1071;52.544;13.374;2024-02-14T04:30:08;7.80;99.90
2130;DHT22;1071;52.544;13.374;2024-02-14T04:32:36;7.80;99.90
2130;DHT22;1071;52.544;13.374;2024-02-14T04:35:03;7.90;99.90
2130;DHT22;1071;52.544;13.374;2024-02-14T04:37:32;7.80;99.90
2130;DHT22;1071;52.544;13.374;2024-02-14T04:40:00;7.90;99.90
2130;DHT22;1071;52.544;13.374;2024-02-14T04:42:30;7.80;99.90
2130;DHT22;1071;52.544;13.374;2024-02-14T04:44:58;7.90;99.90
2130;DHT22;1071;52.544;13.374;2024-02-14T04:47:25;7.90;99.90
2130;DHT22;1071;52.544;13.374;2024-02-14T04:49:52;7.90;99.90
2130;DHT22;1071;52.544;13.374;2024-02-14T04:52:19;7.90;99.90
2130;DHT22;1071;52.544;13.374;2024-02-14T04:54:46;7.90;99.90
2130;DHT22;1071;52.544;13.374;2024-02-14T04:57:13;7.90;99.90
2130;DHT22;1071;52.544;13.374;2024-02-14T04:59:42;7.90;99.90
2130;DHT22;1071;52.544;13.374;2024-02-14T05:02:09;7.90;99.90
2130;DHT22;1071;52.544;13.374;2024-02-14T05:04:36;8.00;99.90
2130;DHT22;1071;52.544;13.374;2024-02-14T05:07:04;8.00;99.90
2130;DHT22;1071;52.544;13.374;2024-02-14T05:09:32;8.00;99.90
2130;DHT22;1071;52.544;13.374;2024-02-14T05:11:59;8.00;99.90
2130;DHT22;1071;52.544;13.374;2024-02-14T05:14:29;8.00;99.90
2130;DHT22;1071;52.544;13.374;2024-02-14T05:16:58;8.10;99.90
2130;DHT22;1071;52.544;13.374;2024-02-14T05:19:26;8.00;99.90
2130;DHT22;1071;52.544;13.374;2024-02-14T05:21:54;8.00;99.90
2130;DHT22;1071;52.544;13.374;2024-02-14T05:24:21;8.00;99.90
2130;DHT22;1071;52.544;13.374;2024-02-14T05:26:48;8.00;99.90
2130;DHT22;1071;52.544;13.374;2024-02-14T05:29:17;8.00;99.90
2130;DHT22;1071;52.544;13.374;2024-02-14T05:31:46;8.10;99.90
2130;DHT22;1071;52.544;13.374;2024-02-14T05:34:15;8.10;99.90
2130;DHT22;1071;52.544;13.374;2024-02-14T05:36:43;8.10;99.90
2130;DHT22;1071;52.544;13.374;2024-02-14T05:39:12;8.10;99.90
2130;DHT22;1071;52.544;13.374;2024-02-14T05:41:39;8.10;99.90
2130;DHT22;1071;52.544;13.374;2024-02-14T05:44:06;8.10;99.90
2130;DHT22;1071;52.544;13.374;2024-02-14T05:46:40;8.10;99.90
2130;DHT22;1071;52.544;13.374;2024-02-14T05:49:08;8.10;99.90
2130;DHT22;1071;52.544;13.374;2024-02-14T05:51:36;8.10;99.90
2130;DHT22;1071;52.544;13.374;2024-02-14T05:54:03;8.10;99.90
2130;DHT22;1071;52.544;13.374;2024-02-14T05:56:31;8.10;99.90
2130;DHT22;1071;52.544;13.374;2024-02-14T05:58:58;8.10;99.90
2130;DHT22;1071;52.544;13.374;2024-02-14T06:01:25;8.10;99.90
2130;DHT22;1071;52.544;13.374;2024-02-14T06:03:52;8.10;99.90
2130;DHT22;1071;52.544;13.374;2024-02-14T06:06:19;8.10;99.90
2130;DHT22;1071;52.544;13.374;2024-02-14T06:08:47;8.10;99.90
2130;DHT22;1071;52.544;13.374;2024-02-14T06:11:14;8.10;99.90
2130;DHT22;1071;52.544;13.374;2024-02-14T06:13:42;8.00;99.90
2130;DHT22;1071;52.544;13.374;2024-02-14T06:16:09;8.00;99.90
2130;DHT22;1071;52.544;13.374;2024-02-14T06:18:37;8.00;99.90
2130;DHT22;1071;52.544;13.374;2024-02-14T06:21:05;8.00;99.90
2130;DHT22;1071;52.544;13.374;2024-02-14T06:23:33;8.00;99.90
2130;DHT22;1071;52.544;13.374;2024-02-14T06:26:04;8.00;99.90
2130;DHT22;1071;52.544;13.374;2024-02-14T06:28:31;8.00;99.90
2130;DHT22;1071;52.544;13.374;2024-02-14T06:31:00;8.10;99.90
2130;DHT22;1071;52.544;13.374;2024-02-14T06:33:27;8.10;99.90
2130;DHT22;1071;52.544;13.374;2024-02-14T06:35:55;8.00;99.90
2130;DHT22;1071;52.544;13.374;2024-02-14T06:38:25;8.10;99.90
2130;DHT22;1071;52.544;13.374;2024-02-14T06:40:52;8.10;99.90
2130;DHT22;1071;52.544;13.374;2024-02-14T06:43:20;8.00;99.90
2130;DHT22;1071;52.544;13.374;2024-02-14T06:45:49;8.00;99.90
2130;DHT22;1071;52.544;13.374;2024-02-14T06:48:16;8.00;99.90
2130;DHT22;1071;52.544;13.374;2024-02-14T06:50:47;8.10;99.90
2130;DHT22;1071;52.544;13.374;2024-02-14T06:53:14;8.00;99.90
2130;DHT22;1071;52.544;13.374;2024-02-14T06:55:41;8.10;99.90
2130;DHT22;1071;52.544;13.374;2024-02-14T06:58:08;8.10;99.90
2130;DHT22;1071;52.544;13.374;2024-02-14T07:00:36;8.10;99.90
2130;DHT22;1071;52.544;13.374;2024-02-14T07:03:04;8.10;99.90
2130;DHT22;1071;52.544;13.374;2024-02-14T07:05:31;8.10;99.90
2130;DHT22;1071;52.544;13.374;2024-02-14T07:07:58;8.20;99.90
2130;DHT22;1071;52.544;13.374;2024-02-14T07:10:25;8.20;99.90
2130;DHT22;1071;52.544;13.374;2024-02-14T07:12:52;8.20;99.90
2130;DHT22;1071;52.544;13.374;2024-02-14T07:15:19;8.20;99.90
2130;DHT22;1071;52.544;13.374;2024-02-14T07:17:52;8.30;99.90
2130;DHT22;1071;52.544;13.374;2024-02-14T07:20:20;8.30;99.90
2130;DHT22;1071;52.544;13.374;2024-02-14T07:22:47;8.30;99.90
2130;DHT22;1071;52.544;13.374;2024-02-14T07:25:18;8.40;99.90
2130;DHT22;1071;52.544;13.374;2024-02-14T07:27:45;8.40;99.90
2130;DHT22;1071;52.544;13.374;2024-02-14T07:30:15;8.40;99.90
2130;DHT22;1071;52.544;13.374;2024-02-14T07:32:42;8.40;99.90
2130;DHT22;1071;52.544;13.374;2024-02-14T07:35:10;8.50;99.90
2130;DHT22;1071;52.544;13.374;2024-02-14T07:37:39;8.50;99.90
2130;DHT22;1071;52.544;13.374;2024-02-14T07:40:08;8.50;99.90
2130;DHT22;1071;52.544;13.374;2024-02-14T07:42:35;8.50;99.90
2130;DHT22;1071;52.544;13.374;2024-02-14T07:45:03;8.50;99.90
2130;DHT22;1071;52.544;13.374;2024-02-14T07:47:30;8.60;99.90
2130;DHT22;1071;52.544;13.374;2024-02-14T07:49:57;8.60;99.90
2130;DHT22;1071;52.544;13.374;2024-02-14T07:52:26;8.60;99.90
2130;DHT22;1071;52.544;13.374;2024-02-14T07:54:53;8.70;99.90
2130;DHT22;1071;52.544;13.374;2024-02-14T07:57:21;8.70;99.90
2130;DHT22;1071;52.544;13.374;2024-02-14T07:59:48;8.70;99.90
2130;DHT22;1071;52.544;13.374;2024-02-14T08:02:15;8.70;99.90
2130;DHT22;1071;52.544;13.374;2024-02-14T08:04:42;8.70;99.90
2130;DHT22;1071;52.544;13.374;2024-02-14T08:07:09;8.70;99.90
2130;DHT22;1071;52.544;13.374;2024-02-14T08:09:38;8.80;99.90
2130;DHT22;1071;52.544;13.374;2024-02-14T08:12:06;8.80;99.90
2130;DHT22;1071;52.544;13.374;2024-02-14T08:14:33;8.90;99.90
2130;DHT22;1071;52.544;13.374;2024-02-14T08:17:00;8.90;99.90
2130;DHT22;1071;52.544;13.374;2024-02-14T08:19:27;8.90;99.90
2130;DHT22;1071;52.544;13.374;2024-02-14T08:21:54;8.90;99.90
2130;DHT22;1071;52.544;13.374;2024-02-14T08:24:27;8.90;99.90
2130;DHT22;1071;52.544;13.374;2024-02-14T08:26:55;9.00;99.90
2130;DHT22;1071;52.544;13.374;2024-02-14T08:29:23;9.10;99.90
2130;DHT22;1071;52.544;13.374;2024-02-14T08:31:50;9.10;99.90
2130;DHT22;1071;52.544;13.374;2024-02-14T08:34:18;9.10;99.90
2130;DHT22;1071;52.544;13.374;2024-02-14T08:36:45;9.20;99.90
2130;DHT22;1071;52.544;13.374;2024-02-14T08:39:12;9.20;99.90
2130;DHT22;1071;52.544;13.374;2024-02-14T08:41:44;9.20;99.90
2130;DHT22;1071;52.544;13.374;2024-02-14T08:44:14;9.30;99.90
2130;DHT22;1071;52.544;13.374;2024-02-14T08:46:43;9.40;99.90
2130;DHT22;1071;52.544;13.374;2024-02-14T08:49:14;9.40;99.90
2130;DHT22;1071;52.544;13.374;2024-02-14T08:51:41;9.40;99.90
2130;DHT22;1071;52.544;13.374;2024-02-14T08:54:11;9.40;99.90
2130;DHT22;1071;52.544;13.374;2024-02-14T08:56:41;9.40;99.90
2130;DHT22;1071;52.544;13.374;2024-02-14T08:59:08;9.40;99.90
2130;DHT22;1071;52.544;13.374;2024-02-14T09:01:37;9.50;99.90
2130;DHT22;1071;52.544;13.374;2024-02-14T09:04:04;9.50;99.90
2130;DHT22;1071;52.544;13.374;2024-02-14T09:06:31;9.50;99.90
2130;DHT22;1071;52.544;13.374;2024-02-14T09:08:59;9.50;99.90
2130;DHT22;1071;52.544;13.374;2024-02-14T09:11:29;9.50;99.90
2130;DHT22;1071;52.544;13.374;2024-02-14T09:13:57;9.60;99.90
2130;DHT22;1071;52.544;13.374;2024-02-14T09:16:30;9.60;99.90
2130;DHT22;1071;52.544;13.374;2024-02-14T09:19:00;9.60;99.90
2130;DHT22;1071;52.544;13.374;2024-02-14T09:21:28;9.70;99.90
2130;DHT22;1071;52.544;13.374;2024-02-14T09:23:56;9.70;99.90
2130;DHT22;1071;52.544;13.374;2024-02-14T09:26:23;9.80;99.90
2130;DHT22;1071;52.544;13.374;2024-02-14T09:28:50;9.80;99.90
2130;DHT22;1071;52.544;13.374;2024-02-14T09:31:18;9.80;99.90
2130;DHT22;1071;52.544;13.374;2024-02-14T09:33:45;9.80;99.90
2130;DHT22;1071;52.544;13.374;2024-02-14T09:36:14;9.80;99.90
2130;DHT22;1071;52.544;13.374;2024-02-14T09:38:42;9.80;99.90
2130;DHT22;1071;52.544;13.374;2024-02-14T09:41:15;9.80;99.90
2130;DHT22;1071;52.544;13.374;2024-02-14T09:43:44;9.90;99.90
2130;DHT22;1071;52.544;13.374;2024-02-14T09:46:13;9.90;99.90
2130;DHT22;1071;52.544;13.374;2024-02-14T09:48:40;9.90;99.90
2130;DHT22;1071;52.544;13.374;2024-02-14T09:51:10;9.90;99.90
2130;DHT22;1071;52.544;13.374;2024-02-14T09:53:39;9.90;99.90
2130;DHT22;1071;52.544;13.374;2024-02-14T09:56:09;9.90;99.90
2130;DHT22;1071;52.544;13.374;2024-02-14T09:58:37;9.90;99.90
2130;DHT22;1071;52.544;13.374;2024-02-14T10:01:04;9.90;99.90
2130;DHT22;1071;52.544;13.374;2024-02-14T10:03:32;9.90;99.90
2130;DHT22;1071;52.544;13.374;2024-02-14T10:05:59;9.90;99.90
2130;DHT22;1071;52.544;13.374;2024-02-14T10:08:27;10.00;99.90
2130;DHT22;1071;52.544;13.374;2024-02-14T10:10:57;10.00;99.90
2130;DHT22;1071;52.544;13.374;2024-02-14T10:13:29;10.00;99.90
2130;DHT22;1071;52.544;13.374;2024-02-14T10:15:57;10.00;99.90
2130;DHT22;1071;52.544;13.374;2024-02-14T10:18:24;10.00;99.90
2130;DHT22;1071;52.544;13.374;2024-02-14T10:20:53;10.00;99.90
2130;DHT22;1071;52.544;13.374;2024-02-14T10:23:20;10.10;99.90
2130;DHT22;1071;52.544;13.374;2024-02-14T10:25:52;10.10;99.90
2130;DHT22;1071;52.544;13.374;2024-02-14T10:28:23;10.10;99.90
2130;DHT22;1071;52.544;13.374;2024-02-14T10:31:00;10.10;99.90
2130;DHT22;1071;52.544;13.374;2024-02-14T10:33:30;10.10;99.90
2130;DHT22;1071;52.544;13.374;2024-02-14T10:35:57;10.00;99.90
2130;DHT22;1071;52.544;13.374;2024-02-14T10:38:31;10.10;99.90
2130;DHT22;1071;52.544;13.374;2024-02-14T10:40:59;10.10;99.90
2130;DHT22;1071;52.544;13.374;2024-02-14T10:43:31;10.20;99.90
2130;DHT22;1071;52.544;13.374;2024-02-14T10:46:07;10.20;99.90
2130;DHT22;1071;52.544;13.374;2024-02-14T10:48:35;10.20;99.90
2130;DHT22;1071;52.544;13.374;2024-02-14T10:51:05;10.30;99.90
2130;DHT22;1071;52.544;13.374;2024-02-14T10:53:38;10.30;99.90
2130;DHT22;1071;52.544;13.374;2024-02-14T10:56:08;10.20;99.90
2130;DHT22;1071;52.544;13.374;2024-02-14T10:58:37;10.20;99.90
2130;DHT22;1071;52.544;13.374;2024-02-14T11:01:05;10.30;99.90
2130;DHT22;1071;52.544;13.374;2024-02-14T11:03:33;10.30;99.90
2130;DHT22;1071;52.544;13.374;2024-02-14T11:06:01;10.40;99.90
2130;DHT22;1071;52.544;13.374;2024-02-14T11:08:31;10.40;99.90
2130;DHT22;1071;52.544;13.374;2024-02-14T11:11:00;10.40;99.90
2130;DHT22;1071;52.544;13.374;2024-02-14T11:13:31;10.50;99.90
2130;DHT22;1071;52.544;13.374;2024-02-14T11:16:01;10.50;99.90
2130;DHT22;1071;52.544;13.374;2024-02-14T11:18:30;10.50;99.90
2130;DHT22;1071;52.544;13.374;2024-02-14T11:20:58;10.60;99.90
2130;DHT22;1071;52.544;13.374;2024-02-14T11:23:30;10.60;99.90
2130;DHT22;1071;52.544;13.374;2024-02-14T11:26:01;10.60;99.90
2130;DHT22;1071;52.544;13.374;2024-02-14T11:28:29;10.70;99.90
2130;DHT22;1071;52.544;13.374;2024-02-14T11:31:01;10.70;99.90
2130;DHT22;1071;52.544;13.374;2024-02-14T11:33:29;10.70;99.90
2130;DHT22;1071;52.544;13.374;2024-02-14T11:35:57;10.70;99.90
2130;DHT22;1071;52.544;13.374;2024-02-14T11:38:26;10.70;99.90
2130;DHT22;1071;52.544;13.374;2024-02-14T11:40:55;10.70;99.90
2130;DHT22;1071;52.544;13.374;2024-02-14T11:43:23;10.70;99.90
2130;DHT22;1071;52.544;13.374;2024-02-14T11:45:50;10.70;99.90
2130;DHT22;1071;52.544;13.374;2024-02-14T11:48:19;10.70;99.90
2130;DHT22;1071;52.544;13.374;2024-02-14T11:50:47;10.80;99.90
2130;DHT22;1071;52.544;13.374;2024-02-14T11:53:19;10.70;99.90
2130;DHT22;1071;52.544;13.374;2024-02-14T11:55:47;10.70;99.90
2130;DHT22;1071;52.544;13.374;2024-02-14T11:58:15;10.70;99.90
2130;DHT22;1071;52.544;13.374;2024-02-14T12:00:43;10.60;99.90
2130;DHT22;1071;52.544;13.374;2024-02-14T12:03:15;10.70;99.90
2130;DHT22;1071;52.544;13.374;2024-02-14T12:05:45;10.80;99.90
2130;DHT22;1071;52.544;13.374;2024-02-14T12:08:13;10.70;99.90
2130;DHT22;1071;52.544;13.374;2024-02-14T12:10:42;10.70;99.90
2130;DHT22;1071;52.544;13.374;2024-02-14T12:13:13;10.70;99.90
2130;DHT22;1071;52.544;13.374;2024-02-14T12:15:42;10.70;99.90
2130;DHT22;1071;52.544;13.374;2024-02-14T12:18:11;10.80;99.90
2130;DHT22;1071;52.544;13.374;2024-02-14T12:20:39;10.80;99.90
2130;DHT22;1071;52.544;13.374;2024-02-14T12:23:08;10.80;99.90
2130;DHT22;1071;52.544;13.374;2024-02-14T12:25:43;10.70;99.90
2130;DHT22;1071;52.544;13.374;2024-02-14T12:28:13;10.80;99.90
2130;DHT22;1071;52.544;13.374;2024-02-14T12:30:43;10.80;99.90
2130;DHT22;1071;52.544;13.374;2024-02-14T12:33:12;10.80;99.90
2130;DHT22;1071;52.544;13.374;2024-02-14T12:35:42;10.90;99.90
2130;DHT22;1071;52.544;13.374;2024-02-14T12:38:11;10.90;99.90
2130;DHT22;1071;52.544;13.374;2024-02-14T12:40:39;11.00;99.90
2130;DHT22;1071;52.544;13.374;2024-02-14T12:43:07;11.00;99.90
2130;DHT22;1071;52.544;13.374;2024-02-14T12:45:34;11.10;99.90
2130;DHT22;1071;52.544;13.374;2024-02-14T12:48:01;11.10;99.90
2130;DHT22;1071;52.544;13.374;2024-02-14T12:50:32;11.10;99.90
2130;DHT22;1071;52.544;13.374;2024-02-14T12:53:00;11.00;99.90
2130;DHT22;1071;52.544;13.374;2024-02-14T12:55:29;11.00;99.90
2130;DHT22;1071;52.544;13.374;2024-02-14T12:57:57;11.10;99.90
2130;DHT22;1071;52.544;13.374;2024-02-14T13:00:25;11.10;99.90
2130;DHT22;1071;52.544;13.374;2024-02-14T13:02:52;11.00;99.90
2130;DHT22;1071;52.544;13.374;2024-02-14T13:05:19;11.00;99.90
2130;DHT22;1071;52.544;13.374;2024-02-14T13:07:46;11.00;99.90
2130;DHT22;1071;52.544;13.374;2024-02-14T13:10:13;11.10;99.90
2130;DHT22;1071;52.544;13.374;2024-02-14T13:12:42;11.20;99.90
2130;DHT22;1071;52.544;13.374;2024-02-14T13:15:11;11.20;99.90
2130;DHT22;1071;52.544;13.374;2024-02-14T13:17:38;11.40;99.90
2130;DHT22;1071;52.544;13.374;2024-02-14T13:20:08;11.40;99.90
2130;DHT22;1071;52.544;13.374;2024-02-14T13:22:37;11.40;99.90
2130;DHT22;1071;52.544;13.374;2024-02-14T13:25:04;11.40;99.90
2130;DHT22;1071;52.544;13.374;2024-02-14T13:27:32;11.50;99.90
2130;DHT22;1071;52.544;13.374;2024-02-14T13:30:01;11.50;99.90
2130;DHT22;1071;52.544;13.374;2024-02-14T13:32:28;11.50;99.90
2130;DHT22;1071;52.544;13.374;2024-02-14T13:34:55;11.50;99.90
2130;DHT22;1071;52.544;13.374;2024-02-14T13:37:22;11.60;99.90
2130;DHT22;1071;52.544;13.374;2024-02-14T13:39:49;11.50;99.90
2130;DHT22;1071;52.544;13.374;2024-02-14T13:42:17;11.50;99.90
2130;DHT22;1071;52.544;13.374;2024-02-14T13:44:44;11.50;99.90
2130;DHT22;1071;52.544;13.374;2024-02-14T13:47:12;11.60;99.90
2130;DHT22;1071;52.544;13.374;2024-02-14T13:49:39;11.60;99.90
2130;DHT22;1071;52.544;13.374;2024-02-14T13:52:10;11.60;99.90
2130;DHT22;1071;52.544;13.374;2024-02-14T13:54:43;11.60;99.90
2130;DHT22;1071;52.544;13.374;2024-02-14T13:57:15;11.70;99.90
2130;DHT22;1071;52.544;13.374;2024-02-14T13:59:45;11.70;99.90
2130;DHT22;1071;52.544;13.374;2024-02-14T14:02:14;11.70;99.90
2130;DHT22;1071;52.544;13.374;2024-02-14T14:04:41;11.80;99.90
2130;DHT22;1071;52.544;13.374;2024-02-14T14:07:08;11.80;99.90
2130;DHT22;1071;52.544;13.374;2024-02-14T14:09:35;11.90;99.90
2130;DHT22;1071;52.544;13.374;2024-02-14T14:12:03;11.90;99.90
2130;DHT22;1071;52.544;13.374;2024-02-14T14:14:30;11.90;99.90
2130;DHT22;1071;52.544;13.374;2024-02-14T14:16:57;12.00;99.90
2130;DHT22;1071;52.544;13.374;2024-02-14T14:19:27;12.00;99.90
2130;DHT22;1071;52.544;13.374;2024-02-14T14:21:55;12.00;99.90
2130;DHT22;1071;52.544;13.374;2024-02-14T14:24:25;12.10;99.90
2130;DHT22;1071;52.544;13.374;2024-02-14T14:26:57;12.20;99.90
2130;DHT22;1071;52.544;13.374;2024-02-14T14:29:27;12.20;99.90
2130;DHT22;1071;52.544;13.374;2024-02-14T14:31:55;12.20;99.90
2130;DHT22;1071;52.544;13.374;2024-02-14T14:34:25;12.20;99.90
2130;DHT22;1071;52.544;13.374;2024-02-14T14:36:55;12.30;99.90
2130;DHT22;1071;52.544;13.374;2024-02-14T14:39:24;12.30;99.90
2130;DHT22;1071;52.544;13.374;2024-02-14T14:41:56;12.30;99.90
2130;DHT22;1071;52.544;13.374;2024-02-14T14:44:24;12.40;99.90
2130;DHT22;1071;52.544;13.374;2024-02-14T14:46:50;12.30;99.90
2130;DHT22;1071;52.544;13.374;2024-02-14T14:49:18;12.30;99.90
2130;DHT22;1071;52.544;13.374;2024-02-14T14:51:46;12.40;99.90
2130;DHT22;1071;52.544;13.374;2024-02-14T14:54:15;12.40;99.90
2130;DHT22;1071;52.544;13.374;2024-02-14T14:56:45;12.50;99.90
2130;DHT22;1071;52.544;13.374;2024-02-14T14:59:16;12.40;99.90
2130;DHT22;1071;52.544;13.374;2024-02-14T15:01:45;12.40;99.90
2130;DHT22;1071;52.544;13.374;2024-02-14T15:04:12;12.40;99.90
2130;DHT22;1071;52.544;13.374;2024-02-14T15:06:40;12.40;99.90
2130;DHT22;1071;52.544;13.374;2024-02-14T15:09:10;12.40;99.90
2130;DHT22;1071;52.544;13.374;2024-02-14T15:11:39;12.40;99.90
2130;DHT22;1071;52.544;13.374;2024-02-14T15:14:06;12.40;99.90
2130;DHT22;1071;52.544;13.374;2024-02-14T15:16:36;12.30;99.90
2130;DHT22;1071;52.544;13.374;2024-02-14T15:19:10;12.30;99.90
2130;DHT22;1071;52.544;13.374;2024-02-14T15:21:37;12.30;99.90
2130;DHT22;1071;52.544;13.374;2024-02-14T15:24:06;12.20;99.90
2130;DHT22;1071;52.544;13.374;2024-02-14T15:26:35;12.20;99.90
2130;DHT22;1071;52.544;13.374;2024-02-14T15:29:16;12.20;99.90
2130;DHT22;1071;52.544;13.374;2024-02-14T15:32:01;12.20;99.90
2130;DHT22;1071;52.544;13.374;2024-02-14T15:34:45;12.20;99.90
2130;DHT22;1071;52.544;13.374;2024-02-14T15:37:21;12.20;99.90
2130;DHT22;1071;52.544;13.374;2024-02-14T15:39:48;12.20;99.90
2130;DHT22;1071;52.544;13.374;2024-02-14T15:42:20;12.20;99.90
2130;DHT22;1071;52.544;13.374;2024-02-14T15:44:48;12.20;99.90
2130;DHT22;1071;52.544;13.374;2024-02-14T15:47:15;12.20;99.90
2130;DHT22;1071;52.544;13.374;2024-02-14T15:49:46;12.20;99.90
2130;DHT22;1071;52.544;13.374;2024-02-14T15:52:15;12.20;99.90
2130;DHT22;1071;52.544;13.374;2024-02-14T15:54:46;12.10;99.90
2130;DHT22;1071;52.544;13.374;2024-02-14T15:57:13;12.20;99.90
2130;DHT22;1071;52.544;13.374;2024-02-14T15:59:46;12.20;99.90
2130;DHT22;1071;52.544;13.374;2024-02-14T16:02:13;12.20;99.90